sensor_id;sensor_type;location;lat;lon;timestamp;P1;durP1;ratioP1;P2;durP2;ratioP2
29344;SDS011;16339;48.748;2.222;2022-10-23T00:01:46;17.60;;;6.07;;
29344;SDS011;16339;48.748;2.222;2022-10-23T00:04:15;17.33;;;5.43;;
29344;SDS011;16339;48.748;2.222;2022-10-23T00:06:45;16.73;;;5.95;;
29344;SDS011;16339;48.748;2.222;2022-10-23T00:09:15;16.92;;;5.97;;
29344;SDS011;16339;48.748;2.222;2022-10-23T00:11:49;14.13;;;6.40;;
29344;SDS011;16339;48.748;2.222;2022-10-23T00:14:19;16.50;;;6.05;;
29344;SDS011;16339;48.748;2.222;2022-10-23T00:16:49;20.10;;;6.32;;
29344;SDS011;16339;48.748;2.222;2022-10-23T00:19:18;17.30;;;5.78;;
29344;SDS011;16339;48.748;2.222;2022-10-23T00:21:47;11.48;;;5.55;;
29344;SDS011;16339;48.748;2.222;2022-10-23T00:24:18;15.52;;;5.88;;
29344;SDS011;16339;48.748;2.222;2022-10-23T00:26:50;32.75;;;5.80;;
29344;SDS011;16339;48.748;2.222;2022-10-23T00:29:19;22.38;;;5.72;;
29344;SDS011;16339;48.748;2.222;2022-10-23T00:31:48;19.33;;;6.18;;
29344;SDS011;16339;48.748;2.222;2022-10-23T00:34:17;21.55;;;5.47;;
29344;SDS011;16339;48.748;2.222;2022-10-23T00:36:45;18.90;;;5.95;;
29344;SDS011;16339;48.748;2.222;2022-10-23T00:39:14;15.07;;;6.45;;
29344;SDS011;16339;48.748;2.222;2022-10-23T00:41:43;16.15;;;5.78;;
29344;SDS011;16339;48.748;2.222;2022-10-23T00:47:12;13.07;;;5.63;;
29344;SDS011;16339;48.748;2.222;2022-10-23T00:52:11;13.35;;;5.55;;
29344;SDS011;16339;48.748;2.222;2022-10-23T00:54:41;13.20;;;5.15;;
29344;SDS011;16339;48.748;2.222;2022-10-23T00:57:11;16.25;;;5.55;;
29344;SDS011;16339;48.748;2.222;2022-10-23T00:59:41;14.88;;;4.93;;
29344;SDS011;16339;48.748;2.222;2022-10-23T01:02:13;13.55;;;5.40;;
29344;SDS011;16339;48.748;2.222;2022-10-23T01:04:42;13.40;;;5.43;;
29344;SDS011;16339;48.748;2.222;2022-10-23T01:07:12;5.95;;;3.92;;
29344;SDS011;16339;48.748;2.222;2022-10-23T01:09:46;8.50;;;4.20;;
29344;SDS011;16339;48.748;2.222;2022-10-23T01:12:23;15.18;;;4.30;;
29344;SDS011;16339;48.748;2.222;2022-10-23T01:14:58;10.80;;;3.53;;
29344;SDS011;16339;48.748;2.222;2022-10-23T01:17:39;7.90;;;3.22;;
29344;SDS011;16339;48.748;2.222;2022-10-23T01:20:17;13.27;;;3.15;;
29344;SDS011;16339;48.748;2.222;2022-10-23T01:23:00;7.95;;;2.65;;
29344;SDS011;16339;48.748;2.222;2022-10-23T01:28:41;10.27;;;3.20;;
29344;SDS011;16339;48.748;2.222;2022-10-23T01:31:16;10.20;;;4.32;;
29344;SDS011;16339;48.748;2.222;2022-10-23T01:33:50;11.32;;;3.00;;
29344;SDS011;16339;48.748;2.222;2022-10-23T01:36:25;6.13;;;2.72;;
29344;SDS011;16339;48.748;2.222;2022-10-23T01:38:57;8.98;;;3.15;;
29344;SDS011;16339;48.748;2.222;2022-10-23T01:41:30;9.48;;;3.05;;
29344;SDS011;16339;48.748;2.222;2022-10-23T01:44:08;9.48;;;2.75;;
29344;SDS011;16339;48.748;2.222;2022-10-23T01:46:41;8.98;;;2.90;;
29344;SDS011;16339;48.748;2.222;2022-10-23T01:49:12;15.07;;;3.33;;
29344;SDS011;16339;48.748;2.222;2022-10-23T01:51:45;10.02;;;3.40;;
29344;SDS011;16339;48.748;2.222;2022-10-23T01:54:18;16.08;;;2.90;;
29344;SDS011;16339;48.748;2.222;2022-10-23T01:56:50;11.68;;;2.88;;
29344;SDS011;16339;48.748;2.222;2022-10-23T01:59:24;12.88;;;3.35;;
29344;SDS011;16339;48.748;2.222;2022-10-23T02:01:59;16.77;;;3.33;;
29344;SDS011;16339;48.748;2.222;2022-10-23T02:04:30;16.55;;;2.97;;
29344;SDS011;16339;48.748;2.222;2022-10-23T02:07:03;6.68;;;2.88;;
29344;SDS011;16339;48.748;2.222;2022-10-23T02:09:32;12.73;;;3.00;;
29344;SDS011;16339;48.748;2.222;2022-10-23T02:12:02;8.07;;;2.92;;
29344;SDS011;16339;48.748;2.222;2022-10-23T02:14:39;12.10;;;3.17;;
29344;SDS011;16339;48.748;2.222;2022-10-23T02:17:20;11.43;;;2.95;;
29344;SDS011;16339;48.748;2.222;2022-10-23T02:19:56;16.73;;;2.97;;
29344;SDS011;16339;48.748;2.222;2022-10-23T02:22:30;16.70;;;3.47;;
29344;SDS011;16339;48.748;2.222;2022-10-23T02:25:06;13.75;;;2.65;;
29344;SDS011;16339;48.748;2.222;2022-10-23T02:27:41;9.00;;;2.25;;
29344;SDS011;16339;48.748;2.222;2022-10-23T02:30:17;5.88;;;2.63;;
29344;SDS011;16339;48.748;2.222;2022-10-23T02:32:47;6.38;;;2.60;;
29344;SDS011;16339;48.748;2.222;2022-10-23T02:35:18;7.13;;;2.58;;
29344;SDS011;16339;48.748;2.222;2022-10-23T02:37:51;9.80;;;2.80;;
29344;SDS011;16339;48.748;2.222;2022-10-23T02:40:20;7.97;;;2.80;;
29344;SDS011;16339;48.748;2.222;2022-10-23T02:42:51;11.80;;;2.87;;
29344;SDS011;16339;48.748;2.222;2022-10-23T02:45:28;8.15;;;2.75;;
29344;SDS011;16339;48.748;2.222;2022-10-23T02:47:59;11.85;;;2.97;;
29344;SDS011;16339;48.748;2.222;2022-10-23T02:50:36;10.40;;;3.05;;
29344;SDS011;16339;48.748;2.222;2022-10-23T02:53:12;6.50;;;2.58;;
29344;SDS011;16339;48.748;2.222;2022-10-23T02:55:45;10.30;;;3.00;;
29344;SDS011;16339;48.748;2.222;2022-10-23T02:58:26;10.30;;;3.00;;
29344;SDS011;16339;48.748;2.222;2022-10-23T03:01:02;9.25;;;2.85;;
29344;SDS011;16339;48.748;2.222;2022-10-23T03:03:36;9.13;;;2.80;;
29344;SDS011;16339;48.748;2.222;2022-10-23T03:06:07;5.68;;;2.50;;
29344;SDS011;16339;48.748;2.222;2022-10-23T03:08:40;4.55;;;2.45;;
29344;SDS011;16339;48.748;2.222;2022-10-23T03:11:10;8.38;;;2.70;;
29344;SDS011;16339;48.748;2.222;2022-10-23T03:13:38;6.35;;;2.67;;
29344;SDS011;16339;48.748;2.222;2022-10-23T03:16:10;9.20;;;2.70;;
29344;SDS011;16339;48.748;2.222;2022-10-23T03:18:38;7.00;;;2.80;;
29344;SDS011;16339;48.748;2.222;2022-10-23T03:21:07;9.57;;;2.80;;
29344;SDS011;16339;48.748;2.222;2022-10-23T03:23:35;5.78;;;2.90;;
29344;SDS011;16339;48.748;2.222;2022-10-23T03:26:04;6.50;;;3.22;;
29344;SDS011;16339;48.748;2.222;2022-10-23T03:28:33;11.15;;;4.15;;
29344;SDS011;16339;48.748;2.222;2022-10-23T03:31:02;7.22;;;3.72;;
29344;SDS011;16339;48.748;2.222;2022-10-23T03:33:34;14.10;;;4.53;;
29344;SDS011;16339;48.748;2.222;2022-10-23T03:36:03;9.95;;;3.25;;
29344;SDS011;16339;48.748;2.222;2022-10-23T03:38:32;9.18;;;3.42;;
29344;SDS011;16339;48.748;2.222;2022-10-23T03:41:05;4.82;;;3.40;;
29344;SDS011;16339;48.748;2.222;2022-10-23T03:43:33;9.48;;;3.33;;
29344;SDS011;16339;48.748;2.222;2022-10-23T03:46:02;8.00;;;3.08;;
29344;SDS011;16339;48.748;2.222;2022-10-23T03:48:36;10.45;;;3.00;;
29344;SDS011;16339;48.748;2.222;2022-10-23T03:51:06;8.25;;;2.88;;
29344;SDS011;16339;48.748;2.222;2022-10-23T03:53:35;5.93;;;2.88;;
29344;SDS011;16339;48.748;2.222;2022-10-23T03:56:04;7.55;;;2.70;;
29344;SDS011;16339;48.748;2.222;2022-10-23T03:58:33;8.77;;;3.10;;
29344;SDS011;16339;48.748;2.222;2022-10-23T04:01:01;10.70;;;3.30;;
29344;SDS011;16339;48.748;2.222;2022-10-23T04:03:30;9.75;;;3.40;;
29344;SDS011;16339;48.748;2.222;2022-10-23T04:06:01;8.75;;;3.08;;
29344;SDS011;16339;48.748;2.222;2022-10-23T04:10:59;10.00;;;3.30;;
29344;SDS011;16339;48.748;2.222;2022-10-23T04:13:27;14.10;;;3.03;;
29344;SDS011;16339;48.748;2.222;2022-10-23T04:15:56;8.45;;;3.08;;
29344;SDS011;16339;48.748;2.222;2022-10-23T04:18:25;9.18;;;2.83;;
29344;SDS011;16339;48.748;2.222;2022-10-23T04:20:53;6.82;;;3.13;;
29344;SDS011;16339;48.748;2.222;2022-10-23T04:23:25;12.13;;;2.92;;
29344;SDS011;16339;48.748;2.222;2022-10-23T04:25:54;7.00;;;2.80;;
29344;SDS011;16339;48.748;2.222;2022-10-23T04:28:26;8.70;;;3.17;;
29344;SDS011;16339;48.748;2.222;2022-10-23T04:30:55;8.13;;;2.55;;
29344;SDS011;16339;48.748;2.222;2022-10-23T04:33:23;15.90;;;3.13;;
29344;SDS011;16339;48.748;2.222;2022-10-23T04:35:52;10.27;;;3.15;;
29344;SDS011;16339;48.748;2.222;2022-10-23T04:38:21;9.27;;;2.88;;
29344;SDS011;16339;48.748;2.222;2022-10-23T04:40:52;8.60;;;3.35;;
29344;SDS011;16339;48.748;2.222;2022-10-23T04:43:21;11.43;;;3.20;;
29344;SDS011;16339;48.748;2.222;2022-10-23T04:45:50;11.00;;;4.70;;
29344;SDS011;16339;48.748;2.222;2022-10-23T04:48:18;17.17;;;6.32;;
29344;SDS011;16339;48.748;2.222;2022-10-23T04:50:53;14.82;;;7.35;;
29344;SDS011;16339;48.748;2.222;2022-10-23T04:53:24;18.38;;;7.18;;
29344;SDS011;16339;48.748;2.222;2022-10-23T04:55:56;12.13;;;6.03;;
29344;SDS011;16339;48.748;2.222;2022-10-23T04:58:27;12.75;;;5.55;;
29344;SDS011;16339;48.748;2.222;2022-10-23T05:00:56;15.63;;;4.93;;
29344;SDS011;16339;48.748;2.222;2022-10-23T05:03:26;10.02;;;3.95;;
29344;SDS011;16339;48.748;2.222;2022-10-23T05:05:55;10.75;;;4.45;;
29344;SDS011;16339;48.748;2.222;2022-10-23T05:08:23;8.85;;;4.30;;
29344;SDS011;16339;48.748;2.222;2022-10-23T05:10:52;13.40;;;4.93;;
29344;SDS011;16339;48.748;2.222;2022-10-23T05:13:23;19.02;;;4.60;;
29344;SDS011;16339;48.748;2.222;2022-10-23T05:18:22;20.35;;;5.60;;
29344;SDS011;16339;48.748;2.222;2022-10-23T05:20:54;14.25;;;4.63;;
29344;SDS011;16339;48.748;2.222;2022-10-23T05:23:26;16.83;;;4.38;;
29344;SDS011;16339;48.748;2.222;2022-10-23T05:25:58;11.90;;;5.00;;
29344;SDS011;16339;48.748;2.222;2022-10-23T05:28:30;17.50;;;5.10;;
29344;SDS011;16339;48.748;2.222;2022-10-23T05:33:28;11.18;;;4.85;;
29344;SDS011;16339;48.748;2.222;2022-10-23T05:35:58;11.25;;;4.90;;
29344;SDS011;16339;48.748;2.222;2022-10-23T05:38:28;12.98;;;4.65;;
29344;SDS011;16339;48.748;2.222;2022-10-23T05:40:59;11.82;;;5.55;;
29344;SDS011;16339;48.748;2.222;2022-10-23T05:43:31;15.75;;;5.22;;
29344;SDS011;16339;48.748;2.222;2022-10-23T05:46:02;15.45;;;5.35;;
29344;SDS011;16339;48.748;2.222;2022-10-23T05:48:31;11.40;;;4.75;;
29344;SDS011;16339;48.748;2.222;2022-10-23T05:51:03;10.30;;;4.78;;
29344;SDS011;16339;48.748;2.222;2022-10-23T05:53:33;16.90;;;4.68;;
29344;SDS011;16339;48.748;2.222;2022-10-23T05:56:02;13.05;;;4.75;;
29344;SDS011;16339;48.748;2.222;2022-10-23T05:58:35;9.47;;;5.17;;
29344;SDS011;16339;48.748;2.222;2022-10-23T06:03:33;17.42;;;5.50;;
29344;SDS011;16339;48.748;2.222;2022-10-23T06:06:01;10.63;;;5.25;;
29344;SDS011;16339;48.748;2.222;2022-10-23T06:08:31;16.85;;;6.20;;
29344;SDS011;16339;48.748;2.222;2022-10-23T06:11:04;13.13;;;5.60;;
29344;SDS011;16339;48.748;2.222;2022-10-23T06:13:36;18.08;;;5.88;;
29344;SDS011;16339;48.748;2.222;2022-10-23T06:16:09;11.02;;;5.53;;
29344;SDS011;16339;48.748;2.222;2022-10-23T06:18:41;11.38;;;5.57;;
29344;SDS011;16339;48.748;2.222;2022-10-23T06:21:10;15.73;;;5.88;;
29344;SDS011;16339;48.748;2.222;2022-10-23T06:23:39;16.73;;;5.53;;
29344;SDS011;16339;48.748;2.222;2022-10-23T06:26:10;19.23;;;5.97;;
29344;SDS011;16339;48.748;2.222;2022-10-23T06:28:43;14.25;;;5.95;;
29344;SDS011;16339;48.748;2.222;2022-10-23T06:31:12;11.63;;;5.47;;
29344;SDS011;16339;48.748;2.222;2022-10-23T06:33:43;11.98;;;5.47;;
29344;SDS011;16339;48.748;2.222;2022-10-23T06:36:12;15.80;;;5.57;;
29344;SDS011;16339;48.748;2.222;2022-10-23T06:38:40;13.43;;;6.05;;
29344;SDS011;16339;48.748;2.222;2022-10-23T06:41:11;19.60;;;7.03;;
29344;SDS011;16339;48.748;2.222;2022-10-23T06:43:45;19.05;;;5.90;;
29344;SDS011;16339;48.748;2.222;2022-10-23T06:46:15;16.02;;;6.65;;
29344;SDS011;16339;48.748;2.222;2022-10-23T06:48:44;13.48;;;6.00;;
29344;SDS011;16339;48.748;2.222;2022-10-23T06:51:14;17.45;;;6.80;;
29344;SDS011;16339;48.748;2.222;2022-10-23T06:53:43;15.53;;;6.40;;
29344;SDS011;16339;48.748;2.222;2022-10-23T06:56:14;20.65;;;7.95;;
29344;SDS011;16339;48.748;2.222;2022-10-23T06:58:45;16.60;;;6.28;;
29344;SDS011;16339;48.748;2.222;2022-10-23T07:01:14;15.90;;;6.03;;
29344;SDS011;16339;48.748;2.222;2022-10-23T07:03:43;18.77;;;6.28;;
29344;SDS011;16339;48.748;2.222;2022-10-23T07:06:11;19.50;;;6.20;;
29344;SDS011;16339;48.748;2.222;2022-10-23T07:08:40;20.30;;;6.03;;
29344;SDS011;16339;48.748;2.222;2022-10-23T07:11:09;17.92;;;6.45;;
29344;SDS011;16339;48.748;2.222;2022-10-23T07:13:38;16.60;;;6.78;;
29344;SDS011;16339;48.748;2.222;2022-10-23T07:16:12;13.57;;;5.22;;
29344;SDS011;16339;48.748;2.222;2022-10-23T07:18:42;13.38;;;5.78;;
29344;SDS011;16339;48.748;2.222;2022-10-23T07:21:12;17.67;;;6.50;;
29344;SDS011;16339;48.748;2.222;2022-10-23T07:23:43;15.95;;;5.30;;
29344;SDS011;16339;48.748;2.222;2022-10-23T07:26:12;14.57;;;5.85;;
29344;SDS011;16339;48.748;2.222;2022-10-23T07:28:46;17.25;;;5.82;;
29344;SDS011;16339;48.748;2.222;2022-10-23T07:31:21;19.30;;;5.80;;
29344;SDS011;16339;48.748;2.222;2022-10-23T07:33:50;18.27;;;6.22;;
29344;SDS011;16339;48.748;2.222;2022-10-23T07:36:19;13.93;;;6.43;;
29344;SDS011;16339;48.748;2.222;2022-10-23T07:38:51;17.48;;;6.18;;
29344;SDS011;16339;48.748;2.222;2022-10-23T07:41:20;20.00;;;6.15;;
29344;SDS011;16339;48.748;2.222;2022-10-23T07:43:49;12.00;;;6.00;;
29344;SDS011;16339;48.748;2.222;2022-10-23T07:46:17;16.90;;;6.13;;
29344;SDS011;16339;48.748;2.222;2022-10-23T07:48:49;20.50;;;6.75;;
29344;SDS011;16339;48.748;2.222;2022-10-23T07:51:17;24.30;;;6.57;;
29344;SDS011;16339;48.748;2.222;2022-10-23T07:53:46;16.63;;;7.13;;
29344;SDS011;16339;48.748;2.222;2022-10-23T07:56:16;19.40;;;6.68;;
29344;SDS011;16339;48.748;2.222;2022-10-23T07:58:49;23.50;;;7.25;;
29344;SDS011;16339;48.748;2.222;2022-10-23T08:01:22;21.67;;;7.05;;
29344;SDS011;16339;48.748;2.222;2022-10-23T08:03:56;18.75;;;7.72;;
29344;SDS011;16339;48.748;2.222;2022-10-23T08:06:24;12.45;;;6.68;;
29344;SDS011;16339;48.748;2.222;2022-10-23T08:08:53;16.83;;;7.18;;
29344;SDS011;16339;48.748;2.222;2022-10-23T08:11:22;17.65;;;7.03;;
29344;SDS011;16339;48.748;2.222;2022-10-23T08:13:55;17.95;;;7.43;;
29344;SDS011;16339;48.748;2.222;2022-10-23T08:16:29;16.23;;;6.93;;
29344;SDS011;16339;48.748;2.222;2022-10-23T08:18:58;14.85;;;6.97;;
29344;SDS011;16339;48.748;2.222;2022-10-23T08:21:27;13.50;;;6.38;;
29344;SDS011;16339;48.748;2.222;2022-10-23T08:23:56;19.20;;;6.65;;
29344;SDS011;16339;48.748;2.222;2022-10-23T08:26:26;13.85;;;6.15;;
29344;SDS011;16339;48.748;2.222;2022-10-23T08:28:56;20.90;;;6.38;;
29344;SDS011;16339;48.748;2.222;2022-10-23T08:31:28;12.63;;;5.47;;
29344;SDS011;16339;48.748;2.222;2022-10-23T08:33:57;10.95;;;5.68;;
29344;SDS011;16339;48.748;2.222;2022-10-23T08:36:26;12.80;;;5.38;;
29344;SDS011;16339;48.748;2.222;2022-10-23T08:38:56;14.70;;;5.68;;
29344;SDS011;16339;48.748;2.222;2022-10-23T08:41:26;18.02;;;5.28;;
29344;SDS011;16339;48.748;2.222;2022-10-23T08:44:01;11.27;;;5.13;;
29344;SDS011;16339;48.748;2.222;2022-10-23T08:46:39;22.73;;;5.80;;
29344;SDS011;16339;48.748;2.222;2022-10-23T08:49:15;11.57;;;5.78;;
29344;SDS011;16339;48.748;2.222;2022-10-23T08:51:52;10.05;;;5.05;;
29344;SDS011;16339;48.748;2.222;2022-10-23T08:54:25;19.92;;;5.45;;
29344;SDS011;16339;48.748;2.222;2022-10-23T08:57:02;15.32;;;5.45;;
29344;SDS011;16339;48.748;2.222;2022-10-23T08:59:39;9.73;;;4.72;;
29344;SDS011;16339;48.748;2.222;2022-10-23T09:02:18;17.95;;;6.43;;
29344;SDS011;16339;48.748;2.222;2022-10-23T09:04:51;24.30;;;9.38;;
29344;SDS011;16339;48.748;2.222;2022-10-23T09:10:06;14.02;;;6.00;;
29344;SDS011;16339;48.748;2.222;2022-10-23T09:13:18;9.30;;;5.28;;
29344;SDS011;16339;48.748;2.222;2022-10-23T09:16:13;13.40;;;5.43;;
29344;SDS011;16339;48.748;2.222;2022-10-23T09:22:03;14.55;;;4.85;;
29344;SDS011;16339;48.748;2.222;2022-10-23T09:25:00;11.18;;;4.72;;
29344;SDS011;16339;48.748;2.222;2022-10-23T09:27:39;12.73;;;4.57;;
29344;SDS011;16339;48.748;2.222;2022-10-23T09:30:31;8.55;;;4.22;;
29344;SDS011;16339;48.748;2.222;2022-10-23T09:33:15;12.07;;;4.10;;
29344;SDS011;16339;48.748;2.222;2022-10-23T09:36:02;12.48;;;4.85;;
29344;SDS011;16339;48.748;2.222;2022-10-23T09:38:44;11.23;;;4.43;;
29344;SDS011;16339;48.748;2.222;2022-10-23T09:41:19;8.73;;;4.07;;
29344;SDS011;16339;48.748;2.222;2022-10-23T09:43:59;8.30;;;4.00;;
29344;SDS011;16339;48.748;2.222;2022-10-23T09:46:39;10.68;;;3.38;;
29344;SDS011;16339;48.748;2.222;2022-10-23T09:49:29;8.27;;;3.10;;
29344;SDS011;16339;48.748;2.222;2022-10-23T09:52:21;14.52;;;3.92;;
29344;SDS011;16339;48.748;2.222;2022-10-23T09:54:57;9.93;;;3.83;;
29344;SDS011;16339;48.748;2.222;2022-10-23T09:57:30;10.63;;;4.07;;
29344;SDS011;16339;48.748;2.222;2022-10-23T10:00:06;5.40;;;3.00;;
29344;SDS011;16339;48.748;2.222;2022-10-23T10:02:54;8.60;;;3.38;;
29344;SDS011;16339;48.748;2.222;2022-10-23T10:05:28;9.82;;;3.30;;
29344;SDS011;16339;48.748;2.222;2022-10-23T10:08:04;9.43;;;3.17;;
29344;SDS011;16339;48.748;2.222;2022-10-23T10:10:52;9.70;;;3.38;;
29344;SDS011;16339;48.748;2.222;2022-10-23T10:13:30;7.38;;;3.20;;
29344;SDS011;16339;48.748;2.222;2022-10-23T10:16:23;8.77;;;3.20;;
29344;SDS011;16339;48.748;2.222;2022-10-23T10:19:02;9.32;;;3.30;;
29344;SDS011;16339;48.748;2.222;2022-10-23T10:21:42;9.75;;;3.60;;
29344;SDS011;16339;48.748;2.222;2022-10-23T10:24:24;10.57;;;3.42;;
29344;SDS011;16339;48.748;2.222;2022-10-23T10:27:04;11.93;;;3.42;;
29344;SDS011;16339;48.748;2.222;2022-10-23T10:29:47;9.00;;;3.22;;
29344;SDS011;16339;48.748;2.222;2022-10-23T10:32:29;9.82;;;2.90;;
29344;SDS011;16339;48.748;2.222;2022-10-23T10:35:13;8.70;;;3.42;;
29344;SDS011;16339;48.748;2.222;2022-10-23T10:37:53;5.72;;;2.95;;
29344;SDS011;16339;48.748;2.222;2022-10-23T10:40:33;7.63;;;2.83;;
29344;SDS011;16339;48.748;2.222;2022-10-23T10:43:10;8.93;;;2.80;;
29344;SDS011;16339;48.748;2.222;2022-10-23T10:45:47;8.38;;;3.35;;
29344;SDS011;16339;48.748;2.222;2022-10-23T10:48:33;13.98;;;3.65;;
29344;SDS011;16339;48.748;2.222;2022-10-23T10:51:10;8.20;;;2.97;;
29344;SDS011;16339;48.748;2.222;2022-10-23T10:53:49;8.55;;;2.90;;
29344;SDS011;16339;48.748;2.222;2022-10-23T10:56:28;6.65;;;2.83;;
29344;SDS011;16339;48.748;2.222;2022-10-23T10:59:01;7.20;;;2.72;;
29344;SDS011;16339;48.748;2.222;2022-10-23T11:01:33;9.85;;;2.70;;
29344;SDS011;16339;48.748;2.222;2022-10-23T11:04:08;9.25;;;2.60;;
29344;SDS011;16339;48.748;2.222;2022-10-23T11:06:41;7.00;;;2.53;;
29344;SDS011;16339;48.748;2.222;2022-10-23T11:09:15;8.20;;;2.70;;
29344;SDS011;16339;48.748;2.222;2022-10-23T11:11:49;10.95;;;3.13;;
29344;SDS011;16339;48.748;2.222;2022-10-23T11:59:09;9.05;;;2.80;;
29344;SDS011;16339;48.748;2.222;2022-10-23T12:02:50;6.32;;;2.42;;
29344;SDS011;16339;48.748;2.222;2022-10-23T12:10:03;9.60;;;2.38;;
29344;SDS011;16339;48.748;2.222;2022-10-23T15:10:03;19.90;;;3.60;;
29344;SDS011;16339;48.748;2.222;2022-10-23T15:12:33;19.20;;;2.53;;
29344;SDS011;16339;48.748;2.222;2022-10-23T15:15:02;8.60;;;2.40;;
29344;SDS011;16339;48.748;2.222;2022-10-23T15:17:32;12.88;;;2.72;;
29344;SDS011;16339;48.748;2.222;2022-10-23T15:20:03;11.73;;;2.25;;
29344;SDS011;16339;48.748;2.222;2022-10-23T15:22:33;12.57;;;2.30;;
29344;SDS011;16339;48.748;2.222;2022-10-23T15:25:04;12.88;;;2.67;;
29344;SDS011;16339;48.748;2.222;2022-10-23T15:27:34;14.73;;;2.95;;
29344;SDS011;16339;48.748;2.222;2022-10-23T15:30:03;12.20;;;2.63;;
29344;SDS011;16339;48.748;2.222;2022-10-23T15:32:33;13.55;;;2.45;;
29344;SDS011;16339;48.748;2.222;2022-10-23T15:35:02;9.25;;;2.28;;
29344;SDS011;16339;48.748;2.222;2022-10-23T15:37:31;7.55;;;2.33;;
29344;SDS011;16339;48.748;2.222;2022-10-23T15:40:00;8.30;;;2.13;;
29344;SDS011;16339;48.748;2.222;2022-10-23T15:42:31;6.53;;;1.63;;
29344;SDS011;16339;48.748;2.222;2022-10-23T15:47:28;8.77;;;1.70;;
29344;SDS011;16339;48.748;2.222;2022-10-23T15:49:57;8.98;;;1.63;;
29344;SDS011;16339;48.748;2.222;2022-10-23T15:52:25;8.65;;;1.83;;
29344;SDS011;16339;48.748;2.222;2022-10-23T15:54:57;6.07;;;1.95;;
29344;SDS011;16339;48.748;2.222;2022-10-23T15:57:26;12.18;;;1.60;;
29344;SDS011;16339;48.748;2.222;2022-10-23T15:59:58;7.30;;;1.20;;
29344;SDS011;16339;48.748;2.222;2022-10-23T16:02:26;3.95;;;1.10;;
29344;SDS011;16339;48.748;2.222;2022-10-23T16:04:55;5.60;;;0.93;;
29344;SDS011;16339;48.748;2.222;2022-10-23T16:07:24;4.05;;;1.02;;
29344;SDS011;16339;48.748;2.222;2022-10-23T16:09:53;6.15;;;1.13;;
29344;SDS011;16339;48.748;2.222;2022-10-23T16:12:22;16.10;;;1.00;;
29344;SDS011;16339;48.748;2.222;2022-10-23T16:14:51;9.20;;;1.10;;
29344;SDS011;16339;48.748;2.222;2022-10-23T16:17:22;5.05;;;1.30;;
29344;SDS011;16339;48.748;2.222;2022-10-23T16:19:51;3.42;;;0.88;;
29344;SDS011;16339;48.748;2.222;2022-10-23T16:22:20;14.82;;;1.38;;
29344;SDS011;16339;48.748;2.222;2022-10-23T16:24:49;4.25;;;0.85;;
29344;SDS011;16339;48.748;2.222;2022-10-23T16:27:17;8.55;;;1.23;;
29344;SDS011;16339;48.748;2.222;2022-10-23T16:29:46;6.93;;;1.20;;
29344;SDS011;16339;48.748;2.222;2022-10-23T16:32:15;6.68;;;1.30;;
29344;SDS011;16339;48.748;2.222;2022-10-23T16:34:46;5.32;;;1.08;;
29344;SDS011;16339;48.748;2.222;2022-10-23T16:37:15;8.32;;;1.00;;
29344;SDS011;16339;48.748;2.222;2022-10-23T16:39:43;10.13;;;0.93;;
29344;SDS011;16339;48.748;2.222;2022-10-23T16:42:12;6.55;;;1.10;;
29344;SDS011;16339;48.748;2.222;2022-10-23T16:44:41;5.65;;;1.00;;
29344;SDS011;16339;48.748;2.222;2022-10-23T16:47:09;5.35;;;0.90;;
29344;SDS011;16339;48.748;2.222;2022-10-23T16:49:38;5.53;;;1.10;;
29344;SDS011;16339;48.748;2.222;2022-10-23T16:52:09;14.98;;;2.88;;
29344;SDS011;16339;48.748;2.222;2022-10-23T16:57:09;6.03;;;1.63;;
29344;SDS011;16339;48.748;2.222;2022-10-23T16:59:37;7.88;;;1.90;;
29344;SDS011;16339;48.748;2.222;2022-10-23T17:02:08;10.68;;;1.85;;
29344;SDS011;16339;48.748;2.222;2022-10-23T17:04:37;7.47;;;1.80;;
29344;SDS011;16339;48.748;2.222;2022-10-23T17:07:06;14.40;;;1.55;;
29344;SDS011;16339;48.748;2.222;2022-10-23T17:09:38;6.32;;;1.70;;
29344;SDS011;16339;48.748;2.222;2022-10-23T17:12:07;6.63;;;1.33;;
29344;SDS011;16339;48.748;2.222;2022-10-23T17:14:35;10.02;;;1.40;;
29344;SDS011;16339;48.748;2.222;2022-10-23T17:17:04;7.22;;;1.10;;
29344;SDS011;16339;48.748;2.222;2022-10-23T17:19:34;8.00;;;1.17;;
29344;SDS011;16339;48.748;2.222;2022-10-23T17:24:38;9.00;;;1.20;;
29344;SDS011;16339;48.748;2.222;2022-10-23T17:27:08;7.38;;;1.60;;
29344;SDS011;16339;48.748;2.222;2022-10-23T17:29:37;6.68;;;1.08;;
29344;SDS011;16339;48.748;2.222;2022-10-23T17:32:05;13.20;;;1.50;;
29344;SDS011;16339;48.748;2.222;2022-10-23T17:34:34;6.55;;;1.00;;
29344;SDS011;16339;48.748;2.222;2022-10-23T17:37:04;5.40;;;0.90;;
29344;SDS011;16339;48.748;2.222;2022-10-23T17:39:34;5.28;;;1.25;;
29344;SDS011;16339;48.748;2.222;2022-10-23T17:42:05;5.72;;;1.20;;
29344;SDS011;16339;48.748;2.222;2022-10-23T17:47:02;6.03;;;1.02;;
29344;SDS011;16339;48.748;2.222;2022-10-23T17:49:31;12.38;;;1.23;;
29344;SDS011;16339;48.748;2.222;2022-10-23T17:52:00;6.20;;;1.13;;
29344;SDS011;16339;48.748;2.222;2022-10-23T17:54:29;8.07;;;1.35;;
29344;SDS011;16339;48.748;2.222;2022-10-23T17:56:57;4.43;;;1.10;;
29344;SDS011;16339;48.748;2.222;2022-10-23T17:59:29;4.68;;;1.40;;
29344;SDS011;16339;48.748;2.222;2022-10-23T18:04:26;16.67;;;1.20;;
29344;SDS011;16339;48.748;2.222;2022-10-23T18:06:55;11.38;;;1.27;;
29344;SDS011;16339;48.748;2.222;2022-10-23T18:09:23;8.25;;;1.23;;
29344;SDS011;16339;48.748;2.222;2022-10-23T18:11:52;6.00;;;1.13;;
29344;SDS011;16339;48.748;2.222;2022-10-23T18:14:21;8.98;;;1.30;;
29344;SDS011;16339;48.748;2.222;2022-10-23T18:16:52;9.25;;;1.10;;
29344;SDS011;16339;48.748;2.222;2022-10-23T18:21:49;6.38;;;1.50;;
29344;SDS011;16339;48.748;2.222;2022-10-23T18:24:18;6.90;;;1.40;;
29344;SDS011;16339;48.748;2.222;2022-10-23T18:26:46;8.23;;;1.60;;
29344;SDS011;16339;48.748;2.222;2022-10-23T18:29:15;9.73;;;1.95;;
29344;SDS011;16339;48.748;2.222;2022-10-23T18:31:45;7.72;;;1.85;;
29344;SDS011;16339;48.748;2.222;2022-10-23T18:34:18;8.15;;;1.58;;
29344;SDS011;16339;48.748;2.222;2022-10-23T18:36:49;6.43;;;1.48;;
29344;SDS011;16339;48.748;2.222;2022-10-23T18:39:21;6.10;;;1.48;;
29344;SDS011;16339;48.748;2.222;2022-10-23T18:41:52;3.35;;;1.40;;
29344;SDS011;16339;48.748;2.222;2022-10-23T18:46:53;5.00;;;1.40;;
29344;SDS011;16339;48.748;2.222;2022-10-23T18:49:25;2.92;;;1.30;;
29344;SDS011;16339;48.748;2.222;2022-10-23T18:51:54;4.47;;;1.30;;
29344;SDS011;16339;48.748;2.222;2022-10-23T18:54:23;9.63;;;1.58;;
29344;SDS011;16339;48.748;2.222;2022-10-23T18:56:52;7.22;;;1.60;;
29344;SDS011;16339;48.748;2.222;2022-10-23T18:59:20;5.00;;;1.95;;
29344;SDS011;16339;48.748;2.222;2022-10-23T19:01:52;6.25;;;1.50;;
29344;SDS011;16339;48.748;2.222;2022-10-23T19:04:20;8.77;;;1.52;;
29344;SDS011;16339;48.748;2.222;2022-10-23T19:06:52;4.80;;;1.27;;
29344;SDS011;16339;48.748;2.222;2022-10-23T19:11:49;7.95;;;1.70;;
29344;SDS011;16339;48.748;2.222;2022-10-23T19:14:18;7.35;;;1.35;;
29344;SDS011;16339;48.748;2.222;2022-10-23T19:16:49;6.22;;;1.38;;
29344;SDS011;16339;48.748;2.222;2022-10-23T19:19:26;6.25;;;1.30;;
29344;SDS011;16339;48.748;2.222;2022-10-23T19:21:59;7.45;;;1.73;;
29344;SDS011;16339;48.748;2.222;2022-10-23T19:24:31;6.95;;;1.13;;
29344;SDS011;16339;48.748;2.222;2022-10-23T19:27:04;7.90;;;1.17;;
29344;SDS011;16339;48.748;2.222;2022-10-23T19:29:34;10.57;;;1.50;;
29344;SDS011;16339;48.748;2.222;2022-10-23T19:32:07;7.40;;;1.25;;
29344;SDS011;16339;48.748;2.222;2022-10-23T19:34:36;5.10;;;1.50;;
29344;SDS011;16339;48.748;2.222;2022-10-23T19:37:08;6.43;;;1.00;;
29344;SDS011;16339;48.748;2.222;2022-10-23T19:42:05;8.50;;;1.17;;
29344;SDS011;16339;48.748;2.222;2022-10-23T19:44:34;7.70;;;1.30;;